SWR783 LSZH-LOWI
Flight info
| Callsign | SWR783 |
|---|---|
| Flight time | 0h 51m |
| Altitude | 17000 |
| Route | DEGES Z2 OSDOV M738 MADEB MADEB1B |
| Aircraft | A320/M-SDE3FGHIRWY/LB1 |
Departure
| Time | 2026-05-07 23:24 |
|---|---|
| Airport | Zürich Airport (LSZH) |
Arrival
| Time | 2026-05-08 00:15 |
|---|---|
| Airport | Innsbruck Airport (LOWI) |
| Time | Latitude | Longitude | Altitude | Speed | Heading |
|---|---|---|---|---|---|
| 2026-05-07 22:48 | 47.45180 | 8.55749 | 1397 ft | 0 kts | 186° |
| 2026-05-07 23:14 | 47.45182 | 8.55750 | 1397 ft | 2 kts | 186° |
| 2026-05-07 23:15 | 47.45208 | 8.55755 | 1400 ft | 4 kts | 192° |
| 2026-05-07 23:15 | 47.45221 | 8.55759 | 1401 ft | 0 kts | 196° |
| 2026-05-07 23:16 | 47.45223 | 8.55760 | 1402 ft | 2 kts | 196° |
| 2026-05-07 23:16 | 47.45239 | 8.55768 | 1405 ft | 2 kts | 205° |
| 2026-05-07 23:17 | 47.45254 | 8.55781 | 1406 ft | 3 kts | 232° |
| 2026-05-07 23:17 | 47.45263 | 8.55804 | 1398 ft | 3 kts | 268° |
| 2026-05-07 23:17 | 47.45261 | 8.55824 | 1399 ft | 2 kts | 288° |
| 2026-05-07 23:17 | 47.45256 | 8.55848 | 1406 ft | 3 kts | 283° |
| 2026-05-07 23:18 | 47.45254 | 8.55870 | 1403 ft | 0 kts | 276° |
| 2026-05-07 23:19 | 47.45257 | 8.55833 | 1404 ft | 13 kts | 276° |
| 2026-05-07 23:19 | 47.45271 | 8.55652 | 1397 ft | 15 kts | 276° |
| 2026-05-07 23:19 | 47.45310 | 8.55475 | 1402 ft | 21 kts | 305° |
| 2026-05-07 23:20 | 47.45401 | 8.55369 | 1399 ft | 19 kts | 336° |
| 2026-05-07 23:20 | 47.45532 | 8.55278 | 1401 ft | 23 kts | 334° |
| 2026-05-07 23:20 | 47.45634 | 8.55203 | 1401 ft | 26 kts | 333° |
| 2026-05-07 23:20 | 47.45792 | 8.55098 | 1398 ft | 24 kts | 333° |
| 2026-05-07 23:21 | 47.45954 | 8.54981 | 1402 ft | 28 kts | 336° |
| 2026-05-07 23:21 | 47.46136 | 8.54858 | 1397 ft | 30 kts | 334° |
| 2026-05-07 23:21 | 47.46323 | 8.54729 | 1401 ft | 29 kts | 335° |
| 2026-05-07 23:21 | 47.46572 | 8.54563 | 1400 ft | 30 kts | 330° |
| 2026-05-07 23:22 | 47.46699 | 8.54471 | 1402 ft | 30 kts | 335° |
| 2026-05-07 23:22 | 47.46841 | 8.54390 | 1396 ft | 14 kts | 340° |
| 2026-05-07 23:22 | 47.46930 | 8.54320 | 1401 ft | 14 kts | 323° |
| 2026-05-07 23:22 | 47.47007 | 8.54218 | 1403 ft | 16 kts | 306° |
| 2026-05-07 23:23 | 47.47010 | 8.54060 | 1404 ft | 16 kts | 237° |
| 2026-05-07 23:23 | 47.46904 | 8.54052 | 1405 ft | 18 kts | 155° |
| 2026-05-07 23:23 | 47.46708 | 8.54195 | 1399 ft | 57 kts | 154° |
| 2026-05-07 23:23 | 47.46167 | 8.54557 | 1405 ft | 116 kts | 154° |
| 2026-05-07 23:24 | 47.45262 | 8.55180 | 1406 ft | 168 kts | 155° |
| 2026-05-07 23:24 | 47.44119 | 8.55967 | 1727 ft | 190 kts | 155° |
| 2026-05-07 23:24 | 47.42872 | 8.56825 | 2341 ft | 202 kts | 152° |
| 2026-05-07 23:24 | 47.41899 | 8.58220 | 3196 ft | 202 kts | 112° |
| 2026-05-07 23:25 | 47.41848 | 8.60272 | 3893 ft | 213 kts | 68° |
| 2026-05-07 23:25 | 47.42793 | 8.61972 | 4700 ft | 221 kts | 38° |
| 2026-05-07 23:25 | 47.44013 | 8.63407 | 5547 ft | 226 kts | 41° |
| 2026-05-07 23:25 | 47.45199 | 8.64955 | 6356 ft | 232 kts | 43° |
| 2026-05-07 23:26 | 47.46168 | 8.66859 | 7097 ft | 236 kts | 70° |
| 2026-05-07 23:26 | 47.46454 | 8.69272 | 7708 ft | 248 kts | 89° |
| 2026-05-07 23:26 | 47.46507 | 8.71942 | 8054 ft | 272 kts | 90° |
| 2026-05-07 23:26 | 47.46535 | 8.74834 | 8606 ft | 288 kts | 90° |
| 2026-05-07 23:27 | 47.46638 | 8.80900 | 10211 ft | 302 kts | 89° |
| 2026-05-07 23:27 | 47.46461 | 8.84002 | 10940 ft | 309 kts | 102° |
| 2026-05-07 23:27 | 47.46018 | 8.87234 | 11221 ft | 333 kts | 103° |
| 2026-05-07 23:28 | 47.45520 | 8.90656 | 11722 ft | 346 kts | 103° |
| 2026-05-07 23:28 | 47.45005 | 8.94162 | 12500 ft | 352 kts | 103° |
| 2026-05-07 23:28 | 47.44485 | 8.97715 | 13266 ft | 356 kts | 103° |
| 2026-05-07 23:28 | 47.43965 | 9.01310 | 14013 ft | 360 kts | 103° |
| 2026-05-07 23:29 | 47.43443 | 9.04945 | 14673 ft | 364 kts | 103° |
| 2026-05-07 23:29 | 47.42916 | 9.08617 | 15351 ft | 367 kts | 103° |
| 2026-05-07 23:29 | 47.42385 | 9.12322 | 16040 ft | 370 kts | 103° |
| 2026-05-07 23:29 | 47.41848 | 9.16056 | 16712 ft | 374 kts | 103° |
| 2026-05-07 23:30 | 47.41303 | 9.19836 | 16995 ft | 376 kts | 102° |
| 2026-05-07 23:30 | 47.41189 | 9.23644 | 17058 ft | 370 kts | 81° |
| 2026-05-07 23:30 | 47.41960 | 9.27183 | 17066 ft | 366 kts | 68° |
| 2026-05-07 23:30 | 47.42749 | 9.30759 | 17062 ft | 365 kts | 76° |
| 2026-05-07 23:31 | 47.43361 | 9.34395 | 17057 ft | 365 kts | 76° |
| 2026-05-07 23:31 | 47.43958 | 9.38040 | 17060 ft | 365 kts | 77° |
| 2026-05-07 23:31 | 47.44534 | 9.41692 | 17059 ft | 365 kts | 77° |
| 2026-05-07 23:31 | 47.45092 | 9.45351 | 17056 ft | 365 kts | 78° |
| 2026-05-07 23:32 | 47.45637 | 9.49012 | 17055 ft | 365 kts | 78° |
| 2026-05-07 23:32 | 47.46178 | 9.52681 | 17060 ft | 365 kts | 78° |
| 2026-05-07 23:32 | 47.46719 | 9.56347 | 17054 ft | 365 kts | 78° |
| 2026-05-07 23:32 | 47.47127 | 9.60045 | 17058 ft | 365 kts | 87° |
| 2026-05-07 23:33 | 47.47080 | 9.63778 | 17059 ft | 363 kts | 96° |
| 2026-05-07 23:33 | 47.46873 | 9.67449 | 17058 ft | 363 kts | 96° |
| 2026-05-07 23:33 | 47.46667 | 9.71175 | 17058 ft | 363 kts | 96° |
| 2026-05-07 23:33 | 47.46464 | 9.74893 | 17058 ft | 363 kts | 96° |
| 2026-05-07 23:34 | 47.46261 | 9.78614 | 17066 ft | 364 kts | 96° |
| 2026-05-07 23:34 | 47.46058 | 9.82340 | 17063 ft | 363 kts | 96° |
| 2026-05-07 23:34 | 47.45855 | 9.86066 | 17071 ft | 363 kts | 96° |
| 2026-05-07 23:34 | 47.45649 | 9.89781 | 17068 ft | 363 kts | 96° |
| 2026-05-07 23:35 | 47.45439 | 9.93507 | 17075 ft | 364 kts | 96° |
| 2026-05-07 23:35 | 47.45229 | 9.97227 | 17071 ft | 364 kts | 96° |
| 2026-05-07 23:35 | 47.45014 | 10.00957 | 17070 ft | 363 kts | 96° |
| 2026-05-07 23:35 | 47.44796 | 10.04672 | 17079 ft | 363 kts | 96° |
| 2026-05-07 23:36 | 47.44578 | 10.08386 | 17082 ft | 363 kts | 96° |
| 2026-05-07 23:36 | 47.44295 | 10.12085 | 17080 ft | 362 kts | 103° |
| 2026-05-07 23:36 | 47.43526 | 10.15614 | 17082 ft | 359 kts | 117° |
| 2026-05-07 23:37 | 47.42870 | 10.17457 | 17049 ft | 357 kts | 124° |
| 2026-05-07 23:38 | 47.41343 | 10.20300 | 17046 ft | 351 kts | 138° |
| 2026-05-07 23:38 | 47.39450 | 10.22501 | 17046 ft | 348 kts | 150° |
| 2026-05-07 23:38 | 47.37379 | 10.24366 | 17048 ft | 349 kts | 150° |
| 2026-05-07 23:38 | 47.35349 | 10.26337 | 17048 ft | 351 kts | 143° |
| 2026-05-07 23:39 | 47.33620 | 10.28890 | 17055 ft | 355 kts | 130° |
| 2026-05-07 23:39 | 47.32324 | 10.31991 | 17056 ft | 357 kts | 116° |
| 2026-05-07 23:39 | 47.31536 | 10.35474 | 17061 ft | 361 kts | 103° |
| 2026-05-07 23:39 | 47.31043 | 10.39143 | 17072 ft | 365 kts | 102° |
| 2026-05-07 23:40 | 47.30546 | 10.42796 | 16675 ft | 362 kts | 102° |
| 2026-05-07 23:40 | 47.30050 | 10.46387 | 16426 ft | 354 kts | 103° |
| 2026-05-07 23:40 | 47.29565 | 10.49884 | 16311 ft | 343 kts | 103° |
| 2026-05-07 23:40 | 47.29095 | 10.53274 | 16145 ft | 335 kts | 103° |
| 2026-05-07 23:41 | 47.28679 | 10.56684 | 15392 ft | 345 kts | 96° |
| 2026-05-07 23:41 | 47.28692 | 10.60241 | 14632 ft | 347 kts | 86° |
| 2026-05-07 23:41 | 47.28837 | 10.63782 | 13857 ft | 346 kts | 87° |
| 2026-05-07 23:41 | 47.28981 | 10.67290 | 13259 ft | 337 kts | 87° |
| 2026-05-07 23:42 | 47.29118 | 10.70638 | 13093 ft | 319 kts | 87° |
| 2026-05-07 23:42 | 47.29245 | 10.73857 | 13093 ft | 313 kts | 87° |
| 2026-05-07 23:42 | 47.29370 | 10.77016 | 13099 ft | 313 kts | 87° |
| 2026-05-07 23:42 | 47.29494 | 10.80212 | 13105 ft | 313 kts | 87° |
| 2026-05-07 23:43 | 47.29618 | 10.83412 | 13104 ft | 313 kts | 87° |
| 2026-05-07 23:43 | 47.29740 | 10.86564 | 13103 ft | 299 kts | 87° |
| 2026-05-07 23:43 | 47.29812 | 10.88424 | 13103 ft | 285 kts | 87° |
| 2026-05-07 23:43 | 47.29920 | 10.91252 | 12986 ft | 268 kts | 87° |
| 2026-05-07 23:44 | 47.30022 | 10.93899 | 12854 ft | 253 kts | 87° |
| 2026-05-07 23:44 | 47.30117 | 10.96429 | 12609 ft | 242 kts | 87° |
| 2026-05-07 23:44 | 47.30207 | 10.98880 | 12098 ft | 238 kts | 87° |
| 2026-05-07 23:44 | 47.30298 | 11.01309 | 11561 ft | 236 kts | 87° |
| 2026-05-07 23:45 | 47.30386 | 11.03714 | 11055 ft | 234 kts | 88° |
| 2026-05-07 23:45 | 47.30471 | 11.06083 | 10619 ft | 229 kts | 88° |
| 2026-05-07 23:45 | 47.30429 | 11.08401 | 10171 ft | 224 kts | 101° |
| 2026-05-07 23:45 | 47.30014 | 11.10590 | 9686 ft | 220 kts | 114° |
| 2026-05-07 23:46 | 47.29392 | 11.12645 | 9152 ft | 218 kts | 118° |
| 2026-05-07 23:46 | 47.28527 | 11.14498 | 8297 ft | 225 kts | 132° |
| 2026-05-07 23:46 | 47.27532 | 11.16353 | 7368 ft | 234 kts | 124° |
| 2026-05-07 23:46 | 47.26781 | 11.18481 | 6460 ft | 232 kts | 112° |
| 2026-05-07 23:47 | 47.26329 | 11.20714 | 5334 ft | 225 kts | 102° |
| 2026-05-07 23:47 | 47.26008 | 11.22969 | 4359 ft | 223 kts | 102° |
| 2026-05-07 23:47 | 47.25743 | 11.25159 | 3754 ft | 205 kts | 98° |
| 2026-05-07 23:47 | 47.25570 | 11.27109 | 3462 ft | 181 kts | 96° |
| 2026-05-07 23:48 | 47.25539 | 11.28908 | 3034 ft | 176 kts | 87° |
| 2026-05-07 23:48 | 47.25626 | 11.30726 | 2567 ft | 173 kts | 85° |
| 2026-05-07 23:48 | 47.25808 | 11.32414 | 2196 ft | 161 kts | 81° |
| 2026-05-07 23:48 | 47.25974 | 11.34013 | 1920 ft | 153 kts | 81° |
| 2026-05-07 23:49 | 47.26146 | 11.35382 | 1971 ft | 132 kts | 83° |
| 2026-05-07 23:49 | 47.26290 | 11.36847 | 2483 ft | 151 kts | 81° |
| 2026-05-07 23:49 | 47.26471 | 11.38361 | 3286 ft | 153 kts | 79° |
| 2026-05-07 23:49 | 47.26668 | 11.40030 | 3592 ft | 181 kts | 81° |
| 2026-05-07 23:50 | 47.26878 | 11.42063 | 3600 ft | 220 kts | 82° |
| 2026-05-07 23:50 | 47.27214 | 11.44489 | 3602 ft | 264 kts | 73° |
| 2026-05-07 23:50 | 47.27960 | 11.47205 | 3609 ft | 308 kts | 64° |
| 2026-05-07 23:50 | 47.28949 | 11.50220 | 3607 ft | 346 kts | 64° |
| 2026-05-07 23:51 | 47.30039 | 11.53553 | 3643 ft | 374 kts | 64° |
| 2026-05-07 23:51 | 47.31124 | 11.56914 | 4788 ft | 353 kts | 64° |
| 2026-05-07 23:51 | 47.32144 | 11.60066 | 4833 ft | 328 kts | 64° |
| 2026-05-07 23:51 | 47.33095 | 11.62994 | 4821 ft | 306 kts | 64° |
| 2026-05-07 23:52 | 47.33985 | 11.65736 | 4823 ft | 287 kts | 64° |
| 2026-05-07 23:52 | 47.34818 | 11.68302 | 4824 ft | 268 kts | 64° |
| 2026-05-07 23:52 | 47.35598 | 11.70701 | 4828 ft | 251 kts | 64° |
| 2026-05-07 23:52 | 47.36322 | 11.72941 | 4824 ft | 234 kts | 64° |
| 2026-05-07 23:53 | 47.37128 | 11.74919 | 4849 ft | 216 kts | 51° |
| 2026-05-07 23:53 | 47.38166 | 11.76389 | 5015 ft | 204 kts | 33° |
| 2026-05-07 23:53 | 47.39480 | 11.76997 | 5394 ft | 202 kts | 357° |
| 2026-05-07 23:53 | 47.40796 | 11.76300 | 5935 ft | 208 kts | 322° |
| 2026-05-07 23:54 | 47.41899 | 11.74901 | 6208 ft | 211 kts | 318° |
| 2026-05-07 23:54 | 47.42973 | 11.73437 | 6290 ft | 216 kts | 314° |
| 2026-05-07 23:54 | 47.44010 | 11.71604 | 6730 ft | 246 kts | 303° |
| 2026-05-07 23:54 | 47.44891 | 11.69305 | 7316 ft | 268 kts | 294° |
| 2026-05-07 23:55 | 47.45546 | 11.66629 | 8002 ft | 279 kts | 284° |
| 2026-05-07 23:55 | 47.45839 | 11.63998 | 8530 ft | 242 kts | 275° |
| 2026-05-07 23:55 | 47.45937 | 11.61673 | 8908 ft | 214 kts | 270° |
| 2026-05-07 23:55 | 47.45917 | 11.59498 | 9249 ft | 211 kts | 266° |
| 2026-05-07 23:56 | 47.45813 | 11.57336 | 9592 ft | 212 kts | 264° |
| 2026-05-07 23:56 | 47.45652 | 11.55147 | 9660 ft | 217 kts | 262° |
| 2026-05-07 23:56 | 47.45436 | 11.52892 | 8998 ft | 232 kts | 261° |
| 2026-05-07 23:56 | 47.45132 | 11.50310 | 7530 ft | 277 kts | 259° |
| 2026-05-07 23:57 | 47.44880 | 11.47399 | 7366 ft | 272 kts | 270° |
| 2026-05-07 23:57 | 47.45104 | 11.44617 | 7905 ft | 277 kts | 281° |
| 2026-05-07 23:57 | 47.45556 | 11.41850 | 8359 ft | 278 kts | 284° |
| 2026-05-07 23:57 | 47.45956 | 11.39084 | 8765 ft | 279 kts | 277° |
| 2026-05-07 23:58 | 47.46120 | 11.36191 | 9171 ft | 280 kts | 270° |
| 2026-05-07 23:58 | 47.46034 | 11.33317 | 9305 ft | 280 kts | 259° |
| 2026-05-07 23:58 | 47.45232 | 11.30778 | 9307 ft | 279 kts | 233° |
| 2026-05-07 23:58 | 47.44068 | 11.28484 | 9305 ft | 279 kts | 233° |
| 2026-05-07 23:59 | 47.42900 | 11.26187 | 9307 ft | 279 kts | 233° |
| 2026-05-07 23:59 | 47.41738 | 11.23893 | 9308 ft | 279 kts | 234° |
| 2026-05-07 23:59 | 47.40788 | 11.21392 | 9345 ft | 279 kts | 248° |
| 2026-05-07 23:59 | 47.40288 | 11.18625 | 9399 ft | 280 kts | 262° |
| 2026-05-08 00:00 | 47.40237 | 11.15767 | 9612 ft | 278 kts | 272° |
| 2026-05-08 00:00 | 47.40412 | 11.12912 | 10277 ft | 282 kts | 277° |
| 2026-05-08 00:00 | 47.40753 | 11.10037 | 10954 ft | 289 kts | 281° |
| 2026-05-08 00:00 | 47.41262 | 11.07138 | 11672 ft | 294 kts | 285° |
| 2026-05-08 00:01 | 47.41925 | 11.04270 | 12280 ft | 301 kts | 288° |
| 2026-05-08 00:01 | 47.42267 | 11.01257 | 12262 ft | 297 kts | 265° |
| 2026-05-08 00:01 | 47.41852 | 10.98311 | 12826 ft | 296 kts | 253° |
| 2026-05-08 00:01 | 47.41214 | 10.95412 | 12978 ft | 300 kts | 251° |
| 2026-05-08 00:02 | 47.40567 | 10.92497 | 13008 ft | 300 kts | 253° |
| 2026-05-08 00:02 | 47.39997 | 10.89543 | 13008 ft | 300 kts | 255° |
| 2026-05-08 00:02 | 47.39509 | 10.86550 | 12886 ft | 301 kts | 257° |
| 2026-05-08 00:02 | 47.39086 | 10.83533 | 12848 ft | 298 kts | 259° |
| 2026-05-08 00:03 | 47.38715 | 10.80562 | 12977 ft | 300 kts | 260° |
| 2026-05-08 00:03 | 47.38354 | 10.77529 | 13004 ft | 300 kts | 260° |
| 2026-05-08 00:03 | 47.37998 | 10.74494 | 13003 ft | 300 kts | 260° |
| 2026-05-08 00:03 | 47.37640 | 10.71446 | 13004 ft | 300 kts | 260° |
| 2026-05-08 00:04 | 47.37281 | 10.68418 | 13003 ft | 300 kts | 259° |
| 2026-05-08 00:04 | 47.36919 | 10.65385 | 13003 ft | 300 kts | 259° |
| 2026-05-08 00:04 | 47.36560 | 10.62390 | 12997 ft | 300 kts | 259° |
| 2026-05-08 00:04 | 47.36194 | 10.59357 | 12998 ft | 300 kts | 259° |
| 2026-05-08 00:05 | 47.35649 | 10.56440 | 13000 ft | 293 kts | 241° |
| 2026-05-08 00:05 | 47.34264 | 10.54307 | 12993 ft | 292 kts | 209° |
| 2026-05-08 00:05 | 47.32300 | 10.53589 | 13002 ft | 300 kts | 178° |
| 2026-05-08 00:05 | 47.30296 | 10.54516 | 13000 ft | 309 kts | 147° |
| 2026-05-08 00:06 | 47.28862 | 10.56862 | 12994 ft | 314 kts | 116° |
| 2026-05-08 00:06 | 47.28410 | 10.59981 | 12992 ft | 310 kts | 87° |
| 2026-05-08 00:06 | 47.28785 | 10.62975 | 12991 ft | 286 kts | 76° |
| 2026-05-08 00:06 | 47.29142 | 10.65749 | 12993 ft | 269 kts | 83° |
| 2026-05-08 00:07 | 47.29320 | 10.68460 | 12941 ft | 266 kts | 87° |
| 2026-05-08 00:07 | 47.29385 | 10.71239 | 12294 ft | 274 kts | 90° |
| 2026-05-08 00:07 | 47.29414 | 10.74044 | 11734 ft | 273 kts | 90° |
| 2026-05-08 00:07 | 47.29453 | 10.76848 | 11185 ft | 275 kts | 89° |
| 2026-05-08 00:08 | 47.29514 | 10.79688 | 10717 ft | 278 kts | 89° |
| 2026-05-08 00:08 | 47.29566 | 10.81540 | 10607 ft | 267 kts | 88° |
| 2026-05-08 00:08 | 47.29653 | 10.84157 | 10594 ft | 245 kts | 88° |
| 2026-05-08 00:08 | 47.29741 | 10.86565 | 10591 ft | 225 kts | 88° |
| 2026-05-08 00:09 | 47.29826 | 10.88800 | 10630 ft | 215 kts | 88° |
| 2026-05-08 00:09 | 47.29912 | 10.90992 | 10624 ft | 213 kts | 88° |
| 2026-05-08 00:09 | 47.29996 | 10.93175 | 10460 ft | 214 kts | 88° |
| 2026-05-08 00:09 | 47.30079 | 10.95396 | 9790 ft | 223 kts | 88° |
| 2026-05-08 00:10 | 47.30165 | 10.97734 | 9034 ft | 231 kts | 88° |
| 2026-05-08 00:10 | 47.30251 | 11.00104 | 8433 ft | 230 kts | 88° |
| 2026-05-08 00:10 | 47.30336 | 11.02449 | 7873 ft | 227 kts | 88° |
| 2026-05-08 00:10 | 47.30419 | 11.04724 | 7409 ft | 221 kts | 88° |
| 2026-05-08 00:11 | 47.30498 | 11.06844 | 7404 ft | 193 kts | 88° |
| 2026-05-08 00:11 | 47.30502 | 11.08721 | 7287 ft | 174 kts | 103° |
| 2026-05-08 00:11 | 47.30107 | 11.10308 | 7317 ft | 158 kts | 116° |
| 2026-05-08 00:11 | 47.29669 | 11.11765 | 7308 ft | 154 kts | 115° |
| 2026-05-08 00:12 | 47.29236 | 11.13228 | 6839 ft | 162 kts | 115° |
| 2026-05-08 00:12 | 47.28765 | 11.14825 | 6097 ft | 174 kts | 114° |
| 2026-05-08 00:12 | 47.28314 | 11.16360 | 5997 ft | 154 kts | 114° |
| 2026-05-08 00:12 | 47.27894 | 11.17790 | 6001 ft | 150 kts | 114° |
| 2026-05-08 00:13 | 47.27467 | 11.19198 | 5906 ft | 150 kts | 115° |
| 2026-05-08 00:13 | 47.26995 | 11.20572 | 5603 ft | 150 kts | 118° |
| 2026-05-08 00:13 | 47.26557 | 11.21943 | 5438 ft | 146 kts | 112° |
| 2026-05-08 00:13 | 47.26154 | 11.23347 | 5271 ft | 150 kts | 114° |
| 2026-05-08 00:14 | 47.25736 | 11.24762 | 4920 ft | 153 kts | 110° |
| 2026-05-08 00:14 | 47.25460 | 11.26271 | 4504 ft | 157 kts | 101° |
| 2026-05-08 00:14 | 47.25373 | 11.27887 | 3976 ft | 162 kts | 89° |
| 2026-05-08 00:14 | 47.25496 | 11.29568 | 3347 ft | 170 kts | 82° |
| 2026-05-08 00:15 | 47.25703 | 11.31300 | 2671 ft | 174 kts | 80° |
| 2026-05-08 00:15 | 47.25872 | 11.33057 | 2043 ft | 173 kts | 82° |
| 2026-05-08 00:15 | 47.26054 | 11.34684 | 1921 ft | 143 kts | 83° |
| 2026-05-08 00:15 | 47.26157 | 11.35655 | 1897 ft | 25 kts | 76° |
| 2026-05-08 00:16 | 47.26157 | 11.35725 | 1897 ft | 0 kts | 126° |
| 2026-05-08 00:16 | 47.26156 | 11.35726 | 1898 ft | 0 kts | 130° |
| 2026-05-08 00:16 | 47.26130 | 11.35732 | 1901 ft | 10 kts | 208° |
| 2026-05-08 00:16 | 47.26139 | 11.35559 | 1902 ft | 26 kts | 287° |
| 2026-05-08 00:17 | 47.26115 | 11.35298 | 1905 ft | 21 kts | 265° |
| 2026-05-08 00:17 | 47.26046 | 11.35267 | 1901 ft | 10 kts | 150° |
| 2026-05-08 00:17 | 47.25953 | 11.35281 | 1895 ft | 10 kts | 174° |
| 2026-05-08 00:17 | 47.25900 | 11.35263 | 1897 ft | 5 kts | 256° |
| 2026-05-08 00:18 | 47.25890 | 11.35145 | 1901 ft | 19 kts | 262° |
| 2026-05-08 00:18 | 47.25880 | 11.35050 | 1907 ft | 4 kts | 261° |
| 2026-05-08 00:18 | 47.25877 | 11.35017 | 1900 ft | 0 kts | 261° |
| 2026-05-08 00:19 | 47.25875 | 11.35000 | 1902 ft | 8 kts | 261° |
| 2026-05-08 00:19 | 47.25863 | 11.34893 | 1899 ft | 13 kts | 260° |
| 2026-05-08 00:19 | 47.25839 | 11.34858 | 1899 ft | 5 kts | 147° |
| 2026-05-08 00:20 | 47.25811 | 11.34870 | 1902 ft | 3 kts | 164° |
| 2026-05-08 00:20 | 47.25803 | 11.34871 | 1899 ft | 2 kts | 169° |
| 2026-05-08 00:20 | 47.25801 | 11.34871 | 1900 ft | 0 kts | 170° |